sensor_id;sensor_type;location;lat;lon;timestamp;P1;durP1;ratioP1;P2;durP2;ratioP2
61250;SDS011;47126;47.508;8.590;2022-08-21T00:00:16;164.05;;;11.68;;
61250;SDS011;47126;47.508;8.590;2022-08-21T00:02:47;125.85;;;10.82;;
61250;SDS011;47126;47.508;8.590;2022-08-21T00:05:14;104.10;;;9.50;;
61250;SDS011;47126;47.508;8.590;2022-08-21T00:07:40;102.20;;;11.63;;
61250;SDS011;47126;47.508;8.590;2022-08-21T00:10:06;174.63;;;12.32;;
61250;SDS011;47126;47.508;8.590;2022-08-21T00:12:32;85.72;;;9.38;;
61250;SDS011;47126;47.508;8.590;2022-08-21T00:14:58;116.03;;;11.18;;
61250;SDS011;47126;47.508;8.590;2022-08-21T00:17:25;169.35;;;13.38;;
61250;SDS011;47126;47.508;8.590;2022-08-21T00:19:51;164.38;;;14.80;;
61250;SDS011;47126;47.508;8.590;2022-08-21T00:22:17;131.38;;;11.38;;
61250;SDS011;47126;47.508;8.590;2022-08-21T00:24:43;139.35;;;12.57;;
61250;SDS011;47126;47.508;8.590;2022-08-21T00:27:09;173.88;;;13.52;;
61250;SDS011;47126;47.508;8.590;2022-08-21T00:29:35;122.53;;;12.70;;
61250;SDS011;47126;47.508;8.590;2022-08-21T00:32:01;124.70;;;12.02;;
61250;SDS011;47126;47.508;8.590;2022-08-21T00:34:27;107.53;;;9.80;;
61250;SDS011;47126;47.508;8.590;2022-08-21T00:36:53;113.35;;;10.95;;
61250;SDS011;47126;47.508;8.590;2022-08-21T00:39:19;109.47;;;9.05;;
61250;SDS011;47126;47.508;8.590;2022-08-21T00:41:45;136.65;;;10.65;;
61250;SDS011;47126;47.508;8.590;2022-08-21T00:44:13;114.65;;;10.10;;
61250;SDS011;47126;47.508;8.590;2022-08-21T00:46:39;120.90;;;10.18;;
61250;SDS011;47126;47.508;8.590;2022-08-21T00:49:06;73.28;;;9.98;;
61250;SDS011;47126;47.508;8.590;2022-08-21T00:51:35;78.20;;;9.68;;
61250;SDS011;47126;47.508;8.590;2022-08-21T00:54:02;63.03;;;8.88;;
61250;SDS011;47126;47.508;8.590;2022-08-21T00:56:28;63.00;;;9.27;;
61250;SDS011;47126;47.508;8.590;2022-08-21T00:58:54;93.15;;;10.23;;
61250;SDS011;47126;47.508;8.590;2022-08-21T01:01:21;61.67;;;10.30;;
61250;SDS011;47126;47.508;8.590;2022-08-21T01:03:47;55.25;;;8.20;;
61250;SDS011;47126;47.508;8.590;2022-08-21T01:06:13;94.55;;;12.38;;
61250;SDS011;47126;47.508;8.590;2022-08-21T01:08:39;71.88;;;9.18;;
61250;SDS011;47126;47.508;8.590;2022-08-21T01:11:06;43.70;;;9.02;;
61250;SDS011;47126;47.508;8.590;2022-08-21T01:13:34;50.42;;;9.23;;
61250;SDS011;47126;47.508;8.590;2022-08-21T01:16:02;47.90;;;10.18;;
61250;SDS011;47126;47.508;8.590;2022-08-21T01:18:29;39.70;;;8.88;;
61250;SDS011;47126;47.508;8.590;2022-08-21T01:23:34;58.65;;;10.15;;
61250;SDS011;47126;47.508;8.590;2022-08-21T01:26:00;61.22;;;9.65;;
61250;SDS011;47126;47.508;8.590;2022-08-21T01:28:26;59.13;;;8.98;;
61250;SDS011;47126;47.508;8.590;2022-08-21T01:30:55;42.97;;;8.02;;
61250;SDS011;47126;47.508;8.590;2022-08-21T01:33:22;41.70;;;7.97;;
61250;SDS011;47126;47.508;8.590;2022-08-21T01:35:48;33.95;;;8.10;;
61250;SDS011;47126;47.508;8.590;2022-08-21T01:38:14;37.92;;;8.48;;
61250;SDS011;47126;47.508;8.590;2022-08-21T01:40:40;84.00;;;8.63;;
61250;SDS011;47126;47.508;8.590;2022-08-21T01:43:07;28.73;;;8.75;;
61250;SDS011;47126;47.508;8.590;2022-08-21T01:45:33;39.80;;;8.13;;
61250;SDS011;47126;47.508;8.590;2022-08-21T01:47:59;31.50;;;7.10;;
61250;SDS011;47126;47.508;8.590;2022-08-21T01:50:25;31.63;;;7.80;;
61250;SDS011;47126;47.508;8.590;2022-08-21T01:52:51;27.50;;;7.00;;
61250;SDS011;47126;47.508;8.590;2022-08-21T01:55:17;19.38;;;6.63;;
61250;SDS011;47126;47.508;8.590;2022-08-21T01:57:44;23.13;;;6.93;;
61250;SDS011;47126;47.508;8.590;2022-08-21T02:00:11;25.45;;;5.85;;
61250;SDS011;47126;47.508;8.590;2022-08-21T02:02:39;22.48;;;6.55;;
61250;SDS011;47126;47.508;8.590;2022-08-21T02:05:06;38.38;;;7.15;;
61250;SDS011;47126;47.508;8.590;2022-08-21T02:08:06;31.88;;;6.03;;
61250;SDS011;47126;47.508;8.590;2022-08-21T02:10:27;42.42;;;6.82;;
61250;SDS011;47126;47.508;8.590;2022-08-21T02:12:54;40.53;;;6.50;;
61250;SDS011;47126;47.508;8.590;2022-08-21T02:15:20;39.47;;;6.53;;
61250;SDS011;47126;47.508;8.590;2022-08-21T02:17:58;57.38;;;7.50;;
61250;SDS011;47126;47.508;8.590;2022-08-21T02:20:29;41.55;;;6.95;;
61250;SDS011;47126;47.508;8.590;2022-08-21T02:22:55;40.53;;;6.78;;
61250;SDS011;47126;47.508;8.590;2022-08-21T02:25:22;57.05;;;7.22;;
61250;SDS011;47126;47.508;8.590;2022-08-21T02:27:48;48.60;;;7.60;;
61250;SDS011;47126;47.508;8.590;2022-08-21T02:30:17;57.25;;;8.15;;
61250;SDS011;47126;47.508;8.590;2022-08-21T02:32:43;57.53;;;8.50;;
61250;SDS011;47126;47.508;8.590;2022-08-21T02:35:10;95.32;;;9.52;;
61250;SDS011;47126;47.508;8.590;2022-08-21T02:37:45;156.15;;;11.65;;
61250;SDS011;47126;47.508;8.590;2022-08-21T02:40:12;49.05;;;8.35;;
61250;SDS011;47126;47.508;8.590;2022-08-21T02:42:38;42.03;;;7.35;;
61250;SDS011;47126;47.508;8.590;2022-08-21T02:45:05;27.15;;;7.85;;
61250;SDS011;47126;47.508;8.590;2022-08-21T02:47:31;30.33;;;8.93;;
61250;SDS011;47126;47.508;8.590;2022-08-21T02:49:57;64.00;;;8.90;;
61250;SDS011;47126;47.508;8.590;2022-08-21T02:52:23;40.13;;;8.15;;
61250;SDS011;47126;47.508;8.590;2022-08-21T02:54:49;56.42;;;8.35;;
61250;SDS011;47126;47.508;8.590;2022-08-21T02:57:15;45.80;;;8.52;;
61250;SDS011;47126;47.508;8.590;2022-08-21T02:59:41;38.85;;;7.40;;
61250;SDS011;47126;47.508;8.590;2022-08-21T03:02:07;60.13;;;8.05;;
61250;SDS011;47126;47.508;8.590;2022-08-21T03:04:33;50.65;;;8.30;;
61250;SDS011;47126;47.508;8.590;2022-08-21T03:06:59;82.90;;;10.07;;
61250;SDS011;47126;47.508;8.590;2022-08-21T03:09:25;148.00;;;9.52;;
61250;SDS011;47126;47.508;8.590;2022-08-21T03:11:51;121.88;;;8.55;;
61250;SDS011;47126;47.508;8.590;2022-08-21T03:14:18;126.57;;;8.63;;
61250;SDS011;47126;47.508;8.590;2022-08-21T03:16:44;76.53;;;7.28;;
61250;SDS011;47126;47.508;8.590;2022-08-21T03:19:11;88.10;;;8.25;;
61250;SDS011;47126;47.508;8.590;2022-08-21T03:21:37;148.95;;;9.77;;
61250;SDS011;47126;47.508;8.590;2022-08-21T03:24:04;113.65;;;9.35;;
61250;SDS011;47126;47.508;8.590;2022-08-21T03:26:31;45.78;;;8.88;;
61250;SDS011;47126;47.508;8.590;2022-08-21T03:28:57;72.18;;;8.50;;
61250;SDS011;47126;47.508;8.590;2022-08-21T03:31:24;57.40;;;8.30;;
61250;SDS011;47126;47.508;8.590;2022-08-21T03:33:53;62.17;;;9.75;;
61250;SDS011;47126;47.508;8.590;2022-08-21T03:36:20;27.45;;;7.38;;
61250;SDS011;47126;47.508;8.590;2022-08-21T03:38:46;47.05;;;8.15;;
61250;SDS011;47126;47.508;8.590;2022-08-21T03:41:12;38.25;;;7.55;;
61250;SDS011;47126;47.508;8.590;2022-08-21T03:43:38;46.95;;;8.45;;
61250;SDS011;47126;47.508;8.590;2022-08-21T03:46:05;64.55;;;8.10;;
61250;SDS011;47126;47.508;8.590;2022-08-21T03:48:31;55.20;;;7.80;;
61250;SDS011;47126;47.508;8.590;2022-08-21T03:50:58;64.65;;;7.70;;
61250;SDS011;47126;47.508;8.590;2022-08-21T03:53:24;48.53;;;7.05;;
61250;SDS011;47126;47.508;8.590;2022-08-21T03:55:51;36.72;;;6.65;;
61250;SDS011;47126;47.508;8.590;2022-08-21T03:58:18;38.95;;;7.70;;
61250;SDS011;47126;47.508;8.590;2022-08-21T04:00:45;47.13;;;7.93;;
61250;SDS011;47126;47.508;8.590;2022-08-21T04:03:12;64.57;;;8.07;;
61250;SDS011;47126;47.508;8.590;2022-08-21T04:05:38;57.13;;;7.25;;
61250;SDS011;47126;47.508;8.590;2022-08-21T04:08:05;31.80;;;7.57;;
61250;SDS011;47126;47.508;8.590;2022-08-21T04:10:32;29.23;;;7.13;;
61250;SDS011;47126;47.508;8.590;2022-08-21T04:12:59;25.80;;;7.10;;
61250;SDS011;47126;47.508;8.590;2022-08-21T04:15:25;39.88;;;7.63;;
61250;SDS011;47126;47.508;8.590;2022-08-21T04:17:52;37.45;;;7.50;;
61250;SDS011;47126;47.508;8.590;2022-08-21T04:20:19;43.13;;;6.72;;
61250;SDS011;47126;47.508;8.590;2022-08-21T04:22:45;60.72;;;7.40;;
61250;SDS011;47126;47.508;8.590;2022-08-21T04:25:12;40.30;;;7.32;;
61250;SDS011;47126;47.508;8.590;2022-08-21T04:27:38;44.08;;;7.50;;
61250;SDS011;47126;47.508;8.590;2022-08-21T04:30:05;27.60;;;7.28;;
61250;SDS011;47126;47.508;8.590;2022-08-21T04:32:31;74.70;;;8.50;;
61250;SDS011;47126;47.508;8.590;2022-08-21T04:35:02;46.92;;;8.30;;
61250;SDS011;47126;47.508;8.590;2022-08-21T04:37:29;55.05;;;7.32;;
61250;SDS011;47126;47.508;8.590;2022-08-21T04:39:55;42.22;;;6.80;;
61250;SDS011;47126;47.508;8.590;2022-08-21T04:42:23;40.53;;;6.95;;
61250;SDS011;47126;47.508;8.590;2022-08-21T04:44:49;48.72;;;7.57;;
61250;SDS011;47126;47.508;8.590;2022-08-21T04:47:16;45.90;;;8.05;;
61250;SDS011;47126;47.508;8.590;2022-08-21T04:49:42;36.85;;;8.18;;
61250;SDS011;47126;47.508;8.590;2022-08-21T04:52:09;24.52;;;6.72;;
61250;SDS011;47126;47.508;8.590;2022-08-21T04:54:35;34.28;;;7.13;;
61250;SDS011;47126;47.508;8.590;2022-08-21T04:57:03;23.30;;;6.97;;
61250;SDS011;47126;47.508;8.590;2022-08-21T04:59:35;36.40;;;7.75;;
61250;SDS011;47126;47.508;8.590;2022-08-21T05:02:03;24.88;;;7.18;;
61250;SDS011;47126;47.508;8.590;2022-08-21T05:04:31;28.20;;;6.75;;
61250;SDS011;47126;47.508;8.590;2022-08-21T05:06:59;32.08;;;6.82;;
61250;SDS011;47126;47.508;8.590;2022-08-21T05:09:26;49.10;;;7.78;;
61250;SDS011;47126;47.508;8.590;2022-08-21T05:11:52;35.60;;;9.10;;
61250;SDS011;47126;47.508;8.590;2022-08-21T05:14:19;11.38;;;6.07;;
61250;SDS011;47126;47.508;8.590;2022-08-21T05:16:45;10.15;;;5.18;;
61250;SDS011;47126;47.508;8.590;2022-08-21T05:19:11;8.13;;;4.90;;
61250;SDS011;47126;47.508;8.590;2022-08-21T05:21:39;8.88;;;5.32;;
61250;SDS011;47126;47.508;8.590;2022-08-21T05:24:06;7.90;;;4.35;;
61250;SDS011;47126;47.508;8.590;2022-08-21T05:26:32;7.50;;;4.43;;
61250;SDS011;47126;47.508;8.590;2022-08-21T05:28:58;8.48;;;5.00;;
61250;SDS011;47126;47.508;8.590;2022-08-21T05:31:24;9.55;;;5.32;;
61250;SDS011;47126;47.508;8.590;2022-08-21T05:33:50;8.10;;;4.38;;
61250;SDS011;47126;47.508;8.590;2022-08-21T05:36:17;12.57;;;5.80;;
61250;SDS011;47126;47.508;8.590;2022-08-21T05:38:43;9.40;;;5.30;;
61250;SDS011;47126;47.508;8.590;2022-08-21T05:41:09;10.38;;;5.35;;
61250;SDS011;47126;47.508;8.590;2022-08-21T05:43:35;10.20;;;5.03;;
61250;SDS011;47126;47.508;8.590;2022-08-21T05:46:02;8.88;;;5.25;;
61250;SDS011;47126;47.508;8.590;2022-08-21T05:48:29;9.50;;;5.07;;
61250;SDS011;47126;47.508;8.590;2022-08-21T05:50:56;11.18;;;5.15;;
61250;SDS011;47126;47.508;8.590;2022-08-21T05:53:22;9.68;;;5.55;;
61250;SDS011;47126;47.508;8.590;2022-08-21T05:55:49;11.43;;;5.68;;
61250;SDS011;47126;47.508;8.590;2022-08-21T05:58:16;12.63;;;6.70;;
61250;SDS011;47126;47.508;8.590;2022-08-21T06:00:43;18.70;;;6.82;;
61250;SDS011;47126;47.508;8.590;2022-08-21T06:03:14;12.70;;;5.78;;
61250;SDS011;47126;47.508;8.590;2022-08-21T06:05:41;11.65;;;5.93;;
61250;SDS011;47126;47.508;8.590;2022-08-21T06:08:07;12.45;;;6.32;;
61250;SDS011;47126;47.508;8.590;2022-08-21T06:10:33;13.88;;;6.25;;
61250;SDS011;47126;47.508;8.590;2022-08-21T06:13:00;11.70;;;6.72;;
61250;SDS011;47126;47.508;8.590;2022-08-21T06:15:26;12.70;;;6.15;;
61250;SDS011;47126;47.508;8.590;2022-08-21T06:17:53;10.73;;;6.55;;
61250;SDS011;47126;47.508;8.590;2022-08-21T06:20:19;10.95;;;6.05;;
61250;SDS011;47126;47.508;8.590;2022-08-21T06:22:45;13.10;;;6.00;;
61250;SDS011;47126;47.508;8.590;2022-08-21T06:25:11;10.98;;;5.95;;
61250;SDS011;47126;47.508;8.590;2022-08-21T06:27:37;11.10;;;6.22;;
61250;SDS011;47126;47.508;8.590;2022-08-21T06:30:04;12.05;;;6.43;;
61250;SDS011;47126;47.508;8.590;2022-08-21T06:32:30;13.07;;;6.68;;
61250;SDS011;47126;47.508;8.590;2022-08-21T06:34:56;11.60;;;6.45;;
61250;SDS011;47126;47.508;8.590;2022-08-21T06:37:22;12.35;;;6.55;;
61250;SDS011;47126;47.508;8.590;2022-08-21T06:39:48;10.20;;;5.07;;
61250;SDS011;47126;47.508;8.590;2022-08-21T06:42:15;11.68;;;6.40;;
61250;SDS011;47126;47.508;8.590;2022-08-21T06:44:41;12.80;;;7.38;;
61250;SDS011;47126;47.508;8.590;2022-08-21T06:47:07;10.70;;;6.30;;
61250;SDS011;47126;47.508;8.590;2022-08-21T06:49:34;11.27;;;6.47;;
61250;SDS011;47126;47.508;8.590;2022-08-21T06:52:00;12.75;;;7.10;;
61250;SDS011;47126;47.508;8.590;2022-08-21T06:54:26;13.38;;;6.95;;
61250;SDS011;47126;47.508;8.590;2022-08-21T06:56:52;13.13;;;7.25;;
61250;SDS011;47126;47.508;8.590;2022-08-21T06:59:18;12.18;;;6.50;;
61250;SDS011;47126;47.508;8.590;2022-08-21T07:01:44;12.10;;;6.13;;
61250;SDS011;47126;47.508;8.590;2022-08-21T07:04:11;10.93;;;5.60;;
61250;SDS011;47126;47.508;8.590;2022-08-21T07:06:37;9.18;;;5.07;;
61250;SDS011;47126;47.508;8.590;2022-08-21T07:09:03;10.80;;;5.80;;
61250;SDS011;47126;47.508;8.590;2022-08-21T07:11:29;11.18;;;5.82;;
61250;SDS011;47126;47.508;8.590;2022-08-21T07:13:55;10.32;;;5.60;;
61250;SDS011;47126;47.508;8.590;2022-08-21T07:16:22;13.00;;;5.70;;
61250;SDS011;47126;47.508;8.590;2022-08-21T07:18:48;8.52;;;5.45;;
61250;SDS011;47126;47.508;8.590;2022-08-21T07:21:14;10.85;;;5.93;;
61250;SDS011;47126;47.508;8.590;2022-08-21T07:23:42;8.75;;;5.30;;
61250;SDS011;47126;47.508;8.590;2022-08-21T07:26:08;10.15;;;5.80;;
61250;SDS011;47126;47.508;8.590;2022-08-21T07:28:34;10.15;;;4.70;;
61250;SDS011;47126;47.508;8.590;2022-08-21T07:31:00;8.50;;;4.50;;
61250;SDS011;47126;47.508;8.590;2022-08-21T07:33:28;10.00;;;5.40;;
61250;SDS011;47126;47.508;8.590;2022-08-21T07:35:55;9.13;;;5.30;;
61250;SDS011;47126;47.508;8.590;2022-08-21T07:38:21;8.55;;;4.72;;
61250;SDS011;47126;47.508;8.590;2022-08-21T07:40:48;8.10;;;4.75;;
61250;SDS011;47126;47.508;8.590;2022-08-21T07:43:14;7.75;;;4.80;;
61250;SDS011;47126;47.508;8.590;2022-08-21T07:45:42;10.32;;;4.95;;
61250;SDS011;47126;47.508;8.590;2022-08-21T07:48:08;8.55;;;5.00;;
61250;SDS011;47126;47.508;8.590;2022-08-21T07:50:34;9.10;;;5.43;;
61250;SDS011;47126;47.508;8.590;2022-08-21T07:53:01;11.00;;;5.93;;
61250;SDS011;47126;47.508;8.590;2022-08-21T07:55:27;9.43;;;5.20;;
61250;SDS011;47126;47.508;8.590;2022-08-21T07:57:53;8.43;;;5.30;;
61250;SDS011;47126;47.508;8.590;2022-08-21T08:00:21;11.45;;;7.13;;
61250;SDS011;47126;47.508;8.590;2022-08-21T08:02:48;12.93;;;7.60;;
61250;SDS011;47126;47.508;8.590;2022-08-21T08:05:15;24.23;;;15.38;;
61250;SDS011;47126;47.508;8.590;2022-08-21T08:07:42;13.43;;;9.20;;
61250;SDS011;47126;47.508;8.590;2022-08-21T08:10:08;8.80;;;6.53;;
61250;SDS011;47126;47.508;8.590;2022-08-21T08:12:35;10.43;;;5.80;;
61250;SDS011;47126;47.508;8.590;2022-08-21T08:15:02;10.98;;;6.18;;
61250;SDS011;47126;47.508;8.590;2022-08-21T08:17:29;10.80;;;6.10;;
61250;SDS011;47126;47.508;8.590;2022-08-21T08:19:57;8.15;;;5.57;;
61250;SDS011;47126;47.508;8.590;2022-08-21T08:22:23;8.10;;;5.20;;
61250;SDS011;47126;47.508;8.590;2022-08-21T08:24:50;7.68;;;4.93;;
61250;SDS011;47126;47.508;8.590;2022-08-21T08:27:16;7.55;;;4.70;;
61250;SDS011;47126;47.508;8.590;2022-08-21T08:29:43;7.65;;;4.65;;
61250;SDS011;47126;47.508;8.590;2022-08-21T08:32:09;7.60;;;4.95;;
61250;SDS011;47126;47.508;8.590;2022-08-21T08:34:36;7.50;;;4.80;;
61250;SDS011;47126;47.508;8.590;2022-08-21T08:37:02;7.95;;;4.82;;
61250;SDS011;47126;47.508;8.590;2022-08-21T08:39:28;7.45;;;4.20;;
61250;SDS011;47126;47.508;8.590;2022-08-21T08:44:30;5.55;;;4.00;;
61250;SDS011;47126;47.508;8.590;2022-08-21T08:46:56;6.00;;;4.28;;
61250;SDS011;47126;47.508;8.590;2022-08-21T08:54:43;7.10;;;3.15;;
61250;SDS011;47126;47.508;8.590;2022-08-21T08:57:16;4.88;;;3.42;;
61250;SDS011;47126;47.508;8.590;2022-08-21T08:59:44;4.55;;;3.60;;
61250;SDS011;47126;47.508;8.590;2022-08-21T09:02:12;5.45;;;3.50;;
61250;SDS011;47126;47.508;8.590;2022-08-21T09:04:38;4.13;;;3.03;;
61250;SDS011;47126;47.508;8.590;2022-08-21T09:09:34;6.90;;;3.35;;
61250;SDS011;47126;47.508;8.590;2022-08-21T09:12:04;4.53;;;3.40;;
61250;SDS011;47126;47.508;8.590;2022-08-21T09:22:28;5.78;;;3.15;;
61250;SDS011;47126;47.508;8.590;2022-08-21T09:27:25;4.90;;;2.97;;
61250;SDS011;47126;47.508;8.590;2022-08-21T09:29:52;4.75;;;2.78;;
61250;SDS011;47126;47.508;8.590;2022-08-21T09:32:29;5.28;;;2.90;;
61250;SDS011;47126;47.508;8.590;2022-08-21T09:37:22;3.80;;;2.65;;
61250;SDS011;47126;47.508;8.590;2022-08-21T09:39:48;3.30;;;2.33;;
61250;SDS011;47126;47.508;8.590;2022-08-21T09:42:20;3.78;;;2.58;;
61250;SDS011;47126;47.508;8.590;2022-08-21T09:44:47;3.75;;;2.33;;
61250;SDS011;47126;47.508;8.590;2022-08-21T09:47:14;3.22;;;2.60;;
61250;SDS011;47126;47.508;8.590;2022-08-21T09:52:18;3.50;;;2.15;;
61250;SDS011;47126;47.508;8.590;2022-08-21T09:54:46;4.18;;;2.15;;
61250;SDS011;47126;47.508;8.590;2022-08-21T09:57:19;7.32;;;2.42;;
61250;SDS011;47126;47.508;8.590;2022-08-21T10:00:08;3.53;;;2.40;;
61250;SDS011;47126;47.508;8.590;2022-08-21T10:02:36;6.50;;;3.03;;
61250;SDS011;47126;47.508;8.590;2022-08-21T10:05:14;5.93;;;2.58;;
61250;SDS011;47126;47.508;8.590;2022-08-21T10:07:40;5.30;;;2.50;;
61250;SDS011;47126;47.508;8.590;2022-08-21T10:10:08;3.47;;;2.08;;
61250;SDS011;47126;47.508;8.590;2022-08-21T10:12:49;3.55;;;2.17;;
61250;SDS011;47126;47.508;8.590;2022-08-21T10:15:24;5.35;;;2.85;;
61250;SDS011;47126;47.508;8.590;2022-08-21T10:20:23;3.88;;;2.42;;
61250;SDS011;47126;47.508;8.590;2022-08-21T10:25:23;4.72;;;2.83;;
61250;SDS011;47126;47.508;8.590;2022-08-21T10:30:21;5.50;;;2.67;;
61250;SDS011;47126;47.508;8.590;2022-08-21T10:35:30;5.82;;;2.80;;
61250;SDS011;47126;47.508;8.590;2022-08-21T10:38:22;5.35;;;2.72;;
61250;SDS011;47126;47.508;8.590;2022-08-21T10:43:32;5.57;;;2.20;;
61250;SDS011;47126;47.508;8.590;2022-08-21T10:51:24;4.00;;;2.60;;
61250;SDS011;47126;47.508;8.590;2022-08-21T10:56:33;4.35;;;2.30;;
61250;SDS011;47126;47.508;8.590;2022-08-21T11:01:45;3.80;;;2.35;;
61250;SDS011;47126;47.508;8.590;2022-08-21T11:04:24;13.43;;;2.25;;
61250;SDS011;47126;47.508;8.590;2022-08-21T11:07:05;5.32;;;2.20;;
61250;SDS011;47126;47.508;8.590;2022-08-21T11:09:31;7.47;;;2.55;;
61250;SDS011;47126;47.508;8.590;2022-08-21T11:17:29;5.00;;;1.98;;
61250;SDS011;47126;47.508;8.590;2022-08-21T11:20:08;4.63;;;2.25;;
61250;SDS011;47126;47.508;8.590;2022-08-21T11:22:56;4.22;;;1.92;;
61250;SDS011;47126;47.508;8.590;2022-08-21T11:25:37;3.80;;;2.00;;
61250;SDS011;47126;47.508;8.590;2022-08-21T11:30:39;5.78;;;1.90;;
61250;SDS011;47126;47.508;8.590;2022-08-21T11:35:58;3.78;;;1.77;;
61250;SDS011;47126;47.508;8.590;2022-08-21T11:38:37;3.95;;;1.60;;
61250;SDS011;47126;47.508;8.590;2022-08-21T11:41:08;3.58;;;1.70;;
61250;SDS011;47126;47.508;8.590;2022-08-21T11:43:41;2.53;;;1.67;;
61250;SDS011;47126;47.508;8.590;2022-08-21T11:51:20;5.60;;;1.77;;
61250;SDS011;47126;47.508;8.590;2022-08-21T11:54:11;5.03;;;1.90;;
61250;SDS011;47126;47.508;8.590;2022-08-21T11:56:35;3.90;;;1.63;;
61250;SDS011;47126;47.508;8.590;2022-08-21T11:59:08;2.50;;;1.50;;
61250;SDS011;47126;47.508;8.590;2022-08-21T12:01:36;2.70;;;1.50;;
61250;SDS011;47126;47.508;8.590;2022-08-21T12:06:32;3.78;;;1.55;;
61250;SDS011;47126;47.508;8.590;2022-08-21T12:09:02;6.65;;;2.53;;
61250;SDS011;47126;47.508;8.590;2022-08-21T12:11:29;7.18;;;3.10;;
61250;SDS011;47126;47.508;8.590;2022-08-21T12:14:00;7.78;;;2.28;;
61250;SDS011;47126;47.508;8.590;2022-08-21T12:19:06;10.13;;;3.60;;
61250;SDS011;47126;47.508;8.590;2022-08-21T12:21:32;5.13;;;2.20;;
61250;SDS011;47126;47.508;8.590;2022-08-21T12:26:51;4.50;;;1.67;;
61250;SDS011;47126;47.508;8.590;2022-08-21T12:29:25;4.30;;;1.50;;
61250;SDS011;47126;47.508;8.590;2022-08-21T12:31:54;2.67;;;1.60;;
61250;SDS011;47126;47.508;8.590;2022-08-21T12:34:21;5.35;;;1.83;;
61250;SDS011;47126;47.508;8.590;2022-08-21T12:36:57;2.30;;;1.48;;
61250;SDS011;47126;47.508;8.590;2022-08-21T12:39:25;3.28;;;1.50;;
61250;SDS011;47126;47.508;8.590;2022-08-21T12:41:58;2.53;;;1.50;;
61250;SDS011;47126;47.508;8.590;2022-08-21T12:44:30;2.45;;;1.60;;
61250;SDS011;47126;47.508;8.590;2022-08-21T12:47:02;2.90;;;1.30;;
61250;SDS011;47126;47.508;8.590;2022-08-21T12:52:20;3.13;;;1.38;;
61250;SDS011;47126;47.508;8.590;2022-08-21T12:54:42;3.10;;;1.20;;
61250;SDS011;47126;47.508;8.590;2022-08-21T12:57:16;2.47;;;1.58;;
61250;SDS011;47126;47.508;8.590;2022-08-21T12:59:43;2.15;;;1.38;;
61250;SDS011;47126;47.508;8.590;2022-08-21T13:02:15;1.42;;;1.20;;
61250;SDS011;47126;47.508;8.590;2022-08-21T13:04:42;4.85;;;2.53;;
61250;SDS011;47126;47.508;8.590;2022-08-21T13:07:13;2.50;;;1.38;;
61250;SDS011;47126;47.508;8.590;2022-08-21T13:09:46;3.72;;;1.80;;
61250;SDS011;47126;47.508;8.590;2022-08-21T13:12:13;3.42;;;1.48;;
61250;SDS011;47126;47.508;8.590;2022-08-21T13:14:40;1.65;;;1.15;;
61250;SDS011;47126;47.508;8.590;2022-08-21T13:17:07;3.33;;;1.63;;
61250;SDS011;47126;47.508;8.590;2022-08-21T13:19:33;3.67;;;1.52;;
61250;SDS011;47126;47.508;8.590;2022-08-21T13:22:00;2.28;;;1.10;;
61250;SDS011;47126;47.508;8.590;2022-08-21T13:24:31;1.48;;;1.27;;
61250;SDS011;47126;47.508;8.590;2022-08-21T13:26:58;11.07;;;4.35;;
61250;SDS011;47126;47.508;8.590;2022-08-21T13:29:28;3.55;;;1.38;;
61250;SDS011;47126;47.508;8.590;2022-08-21T13:34:21;7.70;;;2.45;;
61250;SDS011;47126;47.508;8.590;2022-08-21T13:36:47;2.47;;;1.40;;
61250;SDS011;47126;47.508;8.590;2022-08-21T13:39:17;3.67;;;1.40;;
61250;SDS011;47126;47.508;8.590;2022-08-21T13:41:45;3.80;;;1.58;;
61250;SDS011;47126;47.508;8.590;2022-08-21T13:44:21;6.30;;;2.47;;
61250;SDS011;47126;47.508;8.590;2022-08-21T13:46:51;4.25;;;1.67;;
61250;SDS011;47126;47.508;8.590;2022-08-21T13:49:18;1.20;;;1.00;;
61250;SDS011;47126;47.508;8.590;2022-08-21T13:51:45;1.15;;;0.82;;
61250;SDS011;47126;47.508;8.590;2022-08-21T13:56:41;1.88;;;0.70;;
61250;SDS011;47126;47.508;8.590;2022-08-21T13:59:08;1.15;;;0.70;;
61250;SDS011;47126;47.508;8.590;2022-08-21T14:04:07;1.20;;;0.88;;
61250;SDS011;47126;47.508;8.590;2022-08-21T14:06:37;3.50;;;1.10;;
61250;SDS011;47126;47.508;8.590;2022-08-21T14:09:08;1.20;;;1.00;;
61250;SDS011;47126;47.508;8.590;2022-08-21T14:11:34;2.05;;;0.60;;
61250;SDS011;47126;47.508;8.590;2022-08-21T14:14:03;1.05;;;0.70;;
61250;SDS011;47126;47.508;8.590;2022-08-21T14:16:42;0.50;;;0.50;;
61250;SDS011;47126;47.508;8.590;2022-08-21T14:19:10;4.60;;;1.67;;
61250;SDS011;47126;47.508;8.590;2022-08-21T14:21:37;2.25;;;0.98;;
61250;SDS011;47126;47.508;8.590;2022-08-21T14:26:36;1.02;;;0.93;;
61250;SDS011;47126;47.508;8.590;2022-08-21T14:29:06;0.95;;;0.85;;
61250;SDS011;47126;47.508;8.590;2022-08-21T14:31:33;9.52;;;4.05;;
61250;SDS011;47126;47.508;8.590;2022-08-21T14:33:59;0.80;;;0.65;;
61250;SDS011;47126;47.508;8.590;2022-08-21T14:36:25;1.55;;;0.80;;
61250;SDS011;47126;47.508;8.590;2022-08-21T14:38:52;2.40;;;1.25;;
61250;SDS011;47126;47.508;8.590;2022-08-21T14:41:19;3.45;;;1.25;;
61250;SDS011;47126;47.508;8.590;2022-08-21T14:43:46;3.47;;;0.52;;
61250;SDS011;47126;47.508;8.590;2022-08-21T14:46:13;0.75;;;0.63;;
61250;SDS011;47126;47.508;8.590;2022-08-21T14:48:43;0.88;;;0.70;;
61250;SDS011;47126;47.508;8.590;2022-08-21T14:51:09;1.98;;;0.80;;
61250;SDS011;47126;47.508;8.590;2022-08-21T14:53:35;0.93;;;0.77;;
61250;SDS011;47126;47.508;8.590;2022-08-21T14:56:01;3.80;;;2.08;;
61250;SDS011;47126;47.508;8.590;2022-08-21T14:58:30;1.90;;;1.00;;
61250;SDS011;47126;47.508;8.590;2022-08-21T15:00:57;3.63;;;0.90;;
61250;SDS011;47126;47.508;8.590;2022-08-21T15:03:23;1.00;;;0.85;;
61250;SDS011;47126;47.508;8.590;2022-08-21T15:05:50;1.83;;;1.00;;
61250;SDS011;47126;47.508;8.590;2022-08-21T15:08:16;1.02;;;0.93;;
61250;SDS011;47126;47.508;8.590;2022-08-21T15:10:42;1.35;;;1.08;;
61250;SDS011;47126;47.508;8.590;2022-08-21T15:13:08;3.13;;;0.82;;
61250;SDS011;47126;47.508;8.590;2022-08-21T15:15:42;1.45;;;0.80;;
61250;SDS011;47126;47.508;8.590;2022-08-21T15:18:09;1.77;;;1.10;;
61250;SDS011;47126;47.508;8.590;2022-08-21T15:20:35;3.97;;;0.90;;
61250;SDS011;47126;47.508;8.590;2022-08-21T15:23:01;2.58;;;0.88;;
61250;SDS011;47126;47.508;8.590;2022-08-21T15:25:27;1.25;;;0.93;;
61250;SDS011;47126;47.508;8.590;2022-08-21T15:27:54;1.30;;;0.70;;
61250;SDS011;47126;47.508;8.590;2022-08-21T15:30:20;4.05;;;1.23;;
61250;SDS011;47126;47.508;8.590;2022-08-21T15:32:46;0.93;;;0.80;;
61250;SDS011;47126;47.508;8.590;2022-08-21T15:35:12;2.05;;;1.00;;
61250;SDS011;47126;47.508;8.590;2022-08-21T15:37:38;2.30;;;0.80;;
61250;SDS011;47126;47.508;8.590;2022-08-21T15:40:05;1.98;;;0.90;;
61250;SDS011;47126;47.508;8.590;2022-08-21T15:42:32;2.70;;;0.90;;
61250;SDS011;47126;47.508;8.590;2022-08-21T15:44:58;1.77;;;0.80;;
61250;SDS011;47126;47.508;8.590;2022-08-21T15:47:25;1.00;;;0.80;;
61250;SDS011;47126;47.508;8.590;2022-08-21T15:49:53;3.50;;;0.85;;
61250;SDS011;47126;47.508;8.590;2022-08-21T15:52:20;0.95;;;0.70;;
61250;SDS011;47126;47.508;8.590;2022-08-21T15:54:46;1.85;;;0.70;;
61250;SDS011;47126;47.508;8.590;2022-08-21T15:57:13;3.97;;;1.00;;
61250;SDS011;47126;47.508;8.590;2022-08-21T15:59:41;1.20;;;1.10;;
61250;SDS011;47126;47.508;8.590;2022-08-21T16:02:29;1.45;;;0.90;;
61250;SDS011;47126;47.508;8.590;2022-08-21T16:04:53;1.58;;;0.90;;
61250;SDS011;47126;47.508;8.590;2022-08-21T16:07:19;2.13;;;1.20;;
61250;SDS011;47126;47.508;8.590;2022-08-21T16:09:45;2.13;;;1.13;;